createdAt,value
2019-05-26T00:01:41.087Z,10.80
2019-05-26T00:04:06.213Z,10.80
2019-05-26T00:06:31.582Z,10.80
2019-05-26T00:08:56.706Z,10.80
2019-05-26T00:11:21.805Z,10.80
2019-05-26T00:13:47.206Z,10.80
2019-05-26T00:16:12.375Z,10.80
2019-05-26T00:18:37.515Z,10.80
2019-05-26T00:21:02.738Z,10.90
2019-05-26T00:23:27.786Z,10.90
2019-05-26T00:25:52.906Z,10.90
2019-05-26T00:28:18.081Z,10.90
2019-05-26T00:30:43.353Z,11.00
2019-05-26T00:33:08.719Z,11.00
2019-05-26T00:35:33.866Z,11.00
2019-05-26T00:37:59.796Z,11.00
2019-05-26T00:40:24.898Z,10.90
2019-05-26T00:42:50.025Z,10.90
2019-05-26T00:45:15.346Z,10.90
2019-05-26T00:47:40.689Z,10.90
2019-05-26T00:50:07.126Z,10.80
2019-05-26T00:52:32.238Z,10.80
2019-05-26T00:54:57.355Z,10.70
2019-05-26T00:57:22.453Z,10.70
2019-05-26T00:59:47.588Z,10.70
2019-05-26T01:02:12.665Z,10.60
2019-05-26T01:04:38.146Z,10.60
2019-05-26T01:07:03.393Z,10.50
2019-05-26T01:09:28.759Z,10.50
2019-05-26T01:11:53.883Z,10.40
2019-05-26T01:14:18.974Z,10.40
2019-05-26T01:16:44.128Z,10.40
2019-05-26T01:19:09.230Z,10.30
2019-05-26T01:21:35.346Z,10.20
2019-05-26T01:24:00.472Z,10.20
2019-05-26T01:26:25.566Z,10.20
2019-05-26T01:28:51.733Z,10.10
2019-05-26T01:31:16.833Z,10.10
2019-05-26T01:33:41.942Z,10.00
2019-05-26T01:36:07.086Z,9.90
2019-05-26T01:38:32.374Z,9.90
2019-05-26T01:40:57.505Z,9.80
2019-05-26T01:43:22.573Z,9.80
2019-05-26T01:45:47.814Z,9.70
2019-05-26T01:48:12.918Z,9.70
2019-05-26T01:50:38.020Z,9.70
2019-05-26T01:53:03.144Z,9.60
2019-05-26T01:55:28.714Z,9.60
2019-05-26T01:57:54.114Z,9.60
2019-05-26T02:00:19.297Z,9.50
2019-05-26T02:02:44.419Z,9.50
2019-05-26T02:05:09.523Z,9.50
2019-05-26T02:07:34.981Z,9.40
2019-05-26T02:10:01.161Z,9.40
2019-05-26T02:12:26.242Z,9.40
2019-05-26T02:14:51.397Z,9.30
2019-05-26T02:17:16.474Z,9.30
2019-05-26T02:19:41.576Z,9.30
2019-05-26T02:22:07.015Z,9.30
2019-05-26T02:24:32.122Z,9.20
2019-05-26T02:26:57.261Z,9.20
2019-05-26T02:29:22.349Z,9.20
2019-05-26T02:31:47.725Z,9.10
2019-05-26T02:34:12.853Z,9.10
2019-05-26T02:36:37.957Z,9.20
2019-05-26T02:39:03.680Z,9.10
2019-05-26T02:41:28.876Z,9.10
2019-05-26T02:43:54.008Z,9.10
2019-05-26T02:46:19.101Z,9.10
2019-05-26T02:48:44.207Z,9.00
2019-05-26T02:51:09.337Z,9.00
2019-05-26T02:53:34.440Z,9.00
2019-05-26T02:56:01.933Z,9.00
2019-05-26T02:58:27.026Z,9.00
2019-05-26T03:00:53.048Z,9.00
2019-05-26T03:03:18.172Z,9.00
2019-05-26T03:05:45.577Z,9.00
2019-05-26T03:08:10.992Z,9.00
2019-05-26T03:10:37.144Z,9.00
2019-05-26T03:13:04.226Z,9.00
2019-05-26T03:15:29.803Z,9.00
2019-05-26T03:17:56.224Z,9.00
2019-05-26T03:20:21.315Z,9.00
2019-05-26T03:22:49.305Z,9.00
2019-05-26T03:25:14.398Z,9.00
2019-05-26T03:27:39.491Z,9.00
2019-05-26T03:30:05.089Z,9.00
2019-05-26T03:32:30.256Z,9.10
2019-05-26T03:34:55.463Z,9.10
2019-05-26T03:37:20.546Z,9.10
2019-05-26T03:39:46.551Z,9.10
2019-05-26T03:42:11.863Z,9.20
2019-05-26T03:44:36.959Z,9.20
2019-05-26T03:47:02.082Z,9.30
2019-05-26T03:49:27.185Z,9.20
2019-05-26T03:51:52.299Z,9.30
2019-05-26T03:54:17.388Z,9.40
2019-05-26T03:56:42.618Z,9.50
2019-05-26T03:59:07.734Z,9.50
2019-05-26T04:01:32.801Z,9.60
2019-05-26T04:03:57.945Z,9.70
2019-05-26T04:06:23.048Z,9.70
2019-05-26T04:08:48.177Z,9.80
2019-05-26T04:11:13.260Z,9.90
2019-05-26T04:13:38.379Z,10.00
2019-05-26T04:16:03.616Z,10.00
2019-05-26T04:18:28.719Z,10.10
2019-05-26T04:20:53.861Z,10.20
2019-05-26T04:23:18.974Z,10.20
2019-05-26T04:25:44.092Z,10.30
2019-05-26T04:28:09.178Z,10.40
2019-05-26T04:30:34.314Z,10.50
2019-05-26T04:32:59.410Z,10.60
2019-05-26T04:35:24.517Z,10.60
2019-05-26T04:37:49.656Z,10.70
2019-05-26T04:40:26.668Z,10.80
2019-05-26T04:42:41.495Z,10.90
2019-05-26T04:45:06.646Z,11.00
2019-05-26T04:47:32.266Z,11.00
2019-05-26T04:49:57.394Z,11.10
2019-05-26T04:52:22.575Z,11.20
2019-05-26T04:54:47.694Z,11.20
2019-05-26T04:57:12.797Z,11.30
2019-05-26T04:59:37.928Z,11.40
2019-05-26T05:02:03.106Z,11.40
2019-05-26T05:04:28.233Z,11.50
2019-05-26T05:06:53.370Z,11.60
2019-05-26T05:09:18.591Z,11.70
2019-05-26T05:11:43.685Z,11.80
2019-05-26T05:14:08.787Z,11.80
2019-05-26T05:16:33.922Z,11.90
2019-05-26T05:18:59.250Z,12.10
2019-05-26T05:21:24.400Z,12.20
2019-05-26T05:23:49.490Z,12.30
2019-05-26T05:26:14.634Z,12.40
2019-05-26T05:28:39.723Z,12.50
2019-05-26T05:31:04.845Z,12.70
2019-05-26T05:33:31.796Z,12.80
2019-05-26T05:35:58.134Z,12.90
2019-05-26T05:38:23.280Z,12.90
2019-05-26T05:40:59.136Z,13.10
2019-05-26T05:43:15.227Z,13.20
2019-05-26T05:45:40.415Z,13.30
2019-05-26T05:48:05.567Z,13.40
2019-05-26T05:50:30.703Z,13.60
2019-05-26T05:52:55.856Z,13.70
2019-05-26T05:55:21.329Z,13.90
2019-05-26T05:57:46.404Z,14.10
2019-05-26T06:00:13.464Z,14.20
2019-05-26T06:02:38.551Z,14.30
2019-05-26T06:05:03.926Z,14.40
2019-05-26T06:07:29.180Z,14.60
2019-05-26T06:09:54.298Z,14.80
2019-05-26T06:12:20.151Z,15.00
2019-05-26T06:14:45.243Z,15.10
2019-05-26T06:17:10.643Z,15.20
2019-05-26T06:19:35.858Z,15.50
2019-05-26T06:22:01.074Z,15.60
2019-05-26T06:24:26.163Z,15.80
2019-05-26T06:26:51.293Z,15.90
2019-05-26T06:29:16.422Z,15.90
2019-05-26T06:31:41.542Z,15.90
2019-05-26T06:34:06.657Z,16.00
2019-05-26T06:36:31.749Z,16.10
2019-05-26T06:38:56.994Z,16.40
2019-05-26T06:41:32.751Z,16.70
2019-05-26T06:43:48.839Z,16.80
2019-05-26T06:46:13.957Z,17.00
2019-05-26T06:48:39.087Z,17.40
2019-05-26T06:51:04.237Z,17.70
2019-05-26T06:53:29.355Z,17.90
2019-05-26T06:55:54.471Z,18.10
2019-05-26T06:58:20.551Z,17.90
2019-05-26T07:00:45.667Z,17.80
2019-05-26T07:03:10.906Z,17.80
2019-05-26T07:05:36.294Z,17.90
2019-05-26T07:08:01.572Z,18.10
2019-05-26T07:10:26.698Z,18.30
2019-05-26T07:12:51.830Z,18.50
2019-05-26T07:15:18.123Z,18.50
2019-05-26T07:17:43.214Z,18.70
2019-05-26T07:20:08.635Z,18.70
2019-05-26T07:22:33.722Z,18.50
2019-05-26T07:24:58.856Z,18.60
2019-05-26T07:27:23.997Z,18.90
2019-05-26T07:29:49.096Z,19.00
2019-05-26T07:32:14.191Z,19.00
2019-05-26T07:34:39.335Z,19.10
2019-05-26T07:37:04.693Z,19.10
2019-05-26T07:39:29.915Z,19.20
2019-05-26T07:42:09.344Z,19.00
2019-05-26T07:44:21.664Z,18.90
2019-05-26T07:46:46.878Z,18.80
2019-05-26T07:49:11.964Z,18.90
2019-05-26T07:51:37.081Z,19.10
2019-05-26T07:54:02.267Z,19.30
2019-05-26T07:56:27.360Z,19.20
2019-05-26T07:58:52.502Z,19.30
2019-05-26T08:01:17.611Z,19.10
2019-05-26T08:03:43.723Z,19.00
2019-05-26T08:06:08.842Z,18.90
2019-05-26T08:08:34.092Z,19.00
2019-05-26T08:10:59.210Z,18.90
2019-05-26T08:13:24.293Z,19.00
2019-05-26T08:15:49.414Z,18.90
2019-05-26T08:18:14.505Z,19.00
2019-05-26T08:20:43.471Z,19.20
2019-05-26T08:23:08.577Z,19.00
2019-05-26T08:25:33.693Z,19.10
2019-05-26T08:27:58.798Z,19.30
2019-05-26T08:30:23.877Z,19.50
2019-05-26T08:32:49.011Z,19.60
2019-05-26T08:35:14.102Z,19.40
2019-05-26T08:37:39.250Z,19.60
2019-05-26T08:40:19.577Z,19.50
2019-05-26T08:42:44.926Z,19.70
2019-05-26T08:45:10.015Z,19.90
2019-05-26T08:47:35.376Z,19.90
2019-05-26T08:50:00.494Z,20.00
2019-05-26T08:52:25.593Z,20.10
2019-05-26T08:54:50.706Z,20.10
2019-05-26T08:57:15.797Z,20.20
2019-05-26T08:59:40.934Z,20.40
2019-05-26T09:02:06.034Z,20.30
2019-05-26T09:04:31.129Z,20.40
2019-05-26T09:06:56.261Z,20.10
2019-05-26T09:09:21.426Z,20.00
2019-05-26T09:11:46.584Z,20.00
2019-05-26T09:14:11.682Z,20.10
2019-05-26T09:16:36.786Z,20.40
2019-05-26T09:19:01.929Z,20.50
2019-05-26T09:21:27.274Z,20.40
2019-05-26T09:23:52.398Z,20.40
2019-05-26T09:26:17.502Z,20.70
2019-05-26T09:28:43.590Z,20.80
2019-05-26T09:31:09.502Z,20.80
2019-05-26T09:33:34.717Z,20.70
2019-05-26T09:35:59.818Z,20.90
2019-05-26T09:38:25.731Z,21.20
2019-05-26T09:40:51.055Z,21.40
2019-05-26T09:43:16.892Z,21.40
2019-05-26T09:45:42.075Z,21.40
2019-05-26T09:48:07.166Z,21.30
2019-05-26T09:50:32.325Z,21.10
2019-05-26T09:52:58.386Z,21.00
2019-05-26T09:55:24.454Z,20.90
2019-05-26T09:57:49.586Z,20.80
2019-05-26T10:00:16.147Z,20.80
2019-05-26T10:02:41.633Z,21.20
2019-05-26T10:05:07.223Z,21.20
2019-05-26T10:07:32.326Z,21.20
2019-05-26T10:09:57.490Z,21.20
2019-05-26T10:12:22.597Z,21.20
2019-05-26T10:14:47.961Z,21.20
2019-05-26T10:17:13.136Z,21.30
2019-05-26T10:19:38.254Z,21.50
2019-05-26T10:22:03.396Z,21.60
2019-05-26T10:24:28.483Z,21.30
2019-05-26T10:26:53.819Z,21.50
2019-05-26T10:29:18.971Z,21.40
2019-05-26T10:31:44.074Z,21.50
2019-05-26T10:34:09.203Z,21.60
2019-05-26T10:36:34.294Z,21.80
2019-05-26T10:38:59.427Z,22.00
2019-05-26T10:41:24.527Z,22.00
2019-05-26T10:43:49.638Z,22.10
2019-05-26T10:46:14.772Z,22.30
2019-05-26T10:48:40.659Z,22.30
2019-05-26T10:51:06.978Z,22.40
2019-05-26T10:53:32.432Z,22.50
2019-05-26T10:55:57.569Z,22.50
2019-05-26T10:58:22.759Z,22.60
2019-05-26T11:00:47.949Z,22.80
2019-05-26T11:03:13.070Z,22.90
2019-05-26T11:05:38.171Z,22.90
2019-05-26T11:08:03.299Z,23.00
2019-05-26T11:10:28.846Z,23.10
2019-05-26T11:12:54.784Z,23.10
2019-05-26T11:15:20.514Z,23.10
2019-05-26T11:17:45.849Z,23.30
2019-05-26T11:20:12.167Z,23.40
2019-05-26T11:22:37.350Z,23.40
2019-05-26T11:25:02.553Z,23.40
2019-05-26T11:27:27.651Z,23.60
2019-05-26T11:29:52.781Z,23.90
2019-05-26T11:32:17.922Z,23.80
2019-05-26T11:34:43.022Z,23.60
2019-05-26T11:37:08.346Z,23.50
2019-05-26T11:39:33.434Z,23.40
2019-05-26T11:42:12.212Z,23.50
2019-05-26T11:44:25.270Z,23.40
2019-05-26T11:46:50.374Z,23.70
2019-05-26T11:49:15.966Z,23.60
2019-05-26T11:51:41.087Z,23.80
2019-05-26T11:54:06.201Z,23.70
2019-05-26T11:56:31.561Z,23.70
2019-05-26T11:58:56.677Z,23.70
2019-05-26T12:01:23.156Z,23.80
2019-05-26T12:03:48.486Z,23.80
2019-05-26T12:06:13.577Z,23.70
2019-05-26T12:08:38.702Z,23.80
2019-05-26T12:11:03.890Z,23.70
2019-05-26T12:13:28.982Z,23.70
2019-05-26T12:15:54.118Z,23.70
2019-05-26T12:18:19.210Z,23.60
2019-05-26T12:20:44.377Z,23.70
2019-05-26T12:23:10.457Z,23.60
2019-05-26T12:25:35.586Z,23.80
2019-05-26T12:28:00.932Z,23.80
2019-05-26T12:30:26.166Z,23.80
2019-05-26T12:32:51.281Z,23.60
2019-05-26T12:35:17.323Z,23.70
2019-05-26T12:37:42.456Z,23.60
2019-05-26T12:40:07.811Z,23.70
2019-05-26T12:42:32.918Z,23.90
2019-05-26T12:44:58.003Z,23.90
2019-05-26T12:47:24.640Z,23.60
2019-05-26T12:49:49.702Z,23.60
2019-05-26T12:52:14.798Z,23.70
2019-05-26T12:54:40.211Z,23.70
2019-05-26T12:57:05.497Z,23.80
2019-05-26T12:59:30.848Z,23.70
2019-05-26T13:01:56.013Z,23.50
2019-05-26T13:04:21.302Z,23.50
2019-05-26T13:06:46.691Z,23.60
2019-05-26T13:09:12.337Z,23.70
2019-05-26T13:11:37.590Z,23.80
2019-05-26T13:14:02.943Z,23.70
2019-05-26T13:16:28.039Z,23.80
2019-05-26T13:18:54.302Z,23.80
2019-05-26T13:21:20.401Z,23.50
2019-05-26T13:23:45.533Z,23.60
2019-05-26T13:26:10.630Z,23.80
2019-05-26T13:28:35.733Z,23.90
2019-05-26T13:31:00.867Z,24.00
2019-05-26T13:33:25.958Z,24.10
2019-05-26T13:35:51.106Z,24.10
2019-05-26T13:38:16.218Z,24.10
2019-05-26T13:40:41.310Z,24.20
2019-05-26T13:43:06.445Z,24.30
2019-05-26T13:45:33.888Z,23.90
2019-05-26T13:47:58.528Z,23.90
2019-05-26T13:50:23.882Z,23.90
2019-05-26T13:52:49.111Z,24.00
2019-05-26T13:55:14.529Z,24.10
2019-05-26T13:57:39.643Z,24.10
2019-05-26T14:00:06.037Z,24.10
2019-05-26T14:02:31.570Z,24.10
2019-05-26T14:04:58.210Z,24.10
2019-05-26T14:07:23.297Z,24.20
2019-05-26T14:09:48.410Z,24.00
2019-05-26T14:12:13.594Z,24.20
2019-05-26T14:14:38.735Z,24.00
2019-05-26T14:17:04.070Z,23.90
2019-05-26T14:19:29.584Z,23.80
2019-05-26T14:21:54.710Z,23.90
2019-05-26T14:24:19.801Z,23.80
2019-05-26T14:26:44.919Z,23.80
2019-05-26T14:29:10.766Z,23.60
2019-05-26T14:31:35.911Z,23.50
2019-05-26T14:34:01.028Z,23.40
2019-05-26T14:36:27.206Z,23.30
2019-05-26T14:38:52.326Z,23.30
2019-05-26T14:41:17.718Z,23.30
2019-05-26T14:43:43.061Z,23.40
2019-05-26T14:46:08.171Z,23.30
2019-05-26T14:48:33.309Z,23.20
2019-05-26T14:50:58.694Z,23.10
2019-05-26T14:53:23.781Z,22.90
2019-05-26T14:55:48.910Z,22.80
2019-05-26T14:58:16.056Z,22.90
2019-05-26T15:00:40.796Z,22.90
2019-05-26T15:03:05.886Z,22.80
2019-05-26T15:05:31.001Z,22.80
2019-05-26T15:07:56.111Z,22.80
2019-05-26T15:10:22.770Z,22.80
2019-05-26T15:12:47.982Z,22.90
2019-05-26T15:15:13.229Z,22.80
2019-05-26T15:17:38.422Z,22.70
2019-05-26T15:20:03.621Z,22.80
2019-05-26T15:22:28.726Z,22.80
2019-05-26T15:24:53.810Z,22.80
2019-05-26T15:27:18.936Z,22.70
2019-05-26T15:29:44.310Z,22.60
2019-05-26T15:32:09.423Z,22.70
2019-05-26T15:34:34.554Z,22.80
2019-05-26T15:36:59.642Z,22.70
2019-05-26T15:39:25.005Z,22.90
2019-05-26T15:41:50.405Z,22.90
2019-05-26T15:44:15.521Z,23.00
2019-05-26T15:46:40.621Z,23.00
2019-05-26T15:49:06.569Z,23.00
2019-05-26T15:51:31.702Z,23.00
2019-05-26T15:53:56.845Z,23.00
2019-05-26T15:56:22.266Z,23.00
2019-05-26T15:58:47.488Z,23.00
2019-05-26T16:01:12.590Z,22.90
2019-05-26T16:03:37.912Z,23.00
2019-05-26T16:06:03.033Z,22.90
2019-05-26T16:08:29.774Z,22.80
2019-05-26T16:10:54.946Z,22.70
2019-05-26T16:13:20.223Z,22.70
2019-05-26T16:15:45.377Z,22.70
2019-05-26T16:18:10.522Z,22.70
2019-05-26T16:20:35.651Z,22.70
2019-05-26T16:23:00.763Z,22.60
2019-05-26T16:25:26.138Z,22.70
2019-05-26T16:27:51.434Z,22.80
2019-05-26T16:30:16.707Z,23.00
2019-05-26T16:32:41.831Z,23.00
2019-05-26T16:35:07.263Z,23.10
2019-05-26T16:37:32.654Z,23.00
2019-05-26T16:39:57.782Z,22.80
2019-05-26T16:42:22.882Z,22.80
2019-05-26T16:44:48.022Z,22.80
2019-05-26T16:47:14.185Z,22.90
2019-05-26T16:49:39.672Z,22.90
2019-05-26T16:52:05.047Z,22.80
2019-05-26T16:54:31.234Z,22.70
2019-05-26T16:56:56.324Z,22.70
2019-05-26T16:59:21.544Z,22.80
2019-05-26T17:01:46.626Z,22.80
2019-05-26T17:04:11.770Z,22.70
2019-05-26T17:06:36.906Z,22.70
2019-05-26T17:09:02.013Z,22.50
2019-05-26T17:11:27.504Z,22.30
2019-05-26T17:13:52.747Z,22.20
2019-05-26T17:16:17.931Z,22.20
2019-05-26T17:18:43.090Z,22.20
2019-05-26T17:21:08.159Z,22.10
2019-05-26T17:23:33.283Z,22.00
2019-05-26T17:25:58.446Z,22.00
2019-05-26T17:28:23.565Z,22.00
2019-05-26T17:30:48.666Z,21.90
2019-05-26T17:33:13.781Z,22.00
2019-05-26T17:35:38.862Z,21.90
2019-05-26T17:38:03.965Z,21.90
2019-05-26T17:40:29.110Z,21.80
2019-05-26T17:42:54.461Z,21.70
2019-05-26T17:45:19.800Z,21.70
2019-05-26T17:47:44.895Z,21.60
2019-05-26T17:50:10.094Z,21.60
2019-05-26T17:52:35.248Z,21.50
2019-05-26T17:55:00.349Z,21.40
2019-05-26T17:57:25.462Z,21.40
2019-05-26T17:59:50.562Z,21.40
2019-05-26T18:02:15.741Z,21.30
2019-05-26T18:04:40.836Z,21.20
2019-05-26T18:07:05.953Z,21.20
2019-05-26T18:09:43.663Z,21.10
2019-05-26T18:11:58.782Z,21.10
2019-05-26T18:14:24.054Z,21.10
2019-05-26T18:16:49.150Z,21.00
2019-05-26T18:19:14.314Z,20.90
2019-05-26T18:21:39.435Z,20.90
2019-05-26T18:24:05.647Z,20.90
2019-05-26T18:26:31.026Z,20.80
2019-05-26T18:28:56.127Z,20.80
2019-05-26T18:31:21.230Z,20.80
2019-05-26T18:33:46.352Z,20.70
2019-05-26T18:36:12.150Z,20.60
2019-05-26T18:38:37.835Z,20.60
2019-05-26T18:41:02.947Z,20.50
2019-05-26T18:43:28.046Z,20.40
2019-05-26T18:45:54.164Z,20.40
2019-05-26T18:48:19.226Z,20.30
2019-05-26T18:50:45.615Z,20.20
2019-05-26T18:53:10.715Z,20.10
2019-05-26T18:55:35.850Z,20.10
2019-05-26T18:58:00.973Z,20.00
2019-05-26T19:00:30.769Z,20.00
2019-05-26T19:02:52.812Z,19.90
2019-05-26T19:05:32.424Z,19.90
2019-05-26T19:07:44.709Z,19.80
2019-05-26T19:10:10.295Z,19.70
2019-05-26T19:12:35.502Z,19.70
2019-05-26T19:15:00.746Z,19.60
2019-05-26T19:17:25.845Z,19.60
2019-05-26T19:19:51.107Z,19.50
2019-05-26T19:22:16.222Z,19.50
2019-05-26T19:24:42.604Z,19.40
2019-05-26T19:27:10.393Z,19.40
2019-05-26T19:29:35.547Z,19.30
2019-05-26T19:32:00.662Z,19.30
2019-05-26T19:34:25.755Z,19.20
2019-05-26T19:36:50.868Z,19.20
2019-05-26T19:39:16.110Z,19.20
2019-05-26T19:41:41.318Z,19.10
2019-05-26T19:44:06.502Z,19.00
2019-05-26T19:46:32.570Z,19.00
2019-05-26T19:48:57.943Z,18.90
2019-05-26T19:51:24.084Z,18.80
2019-05-26T19:53:49.208Z,18.70
2019-05-26T19:56:14.317Z,18.60
2019-05-26T19:58:39.447Z,18.60
2019-05-26T20:01:04.810Z,18.60
2019-05-26T20:03:30.820Z,18.50
2019-05-26T20:05:55.941Z,18.50
2019-05-26T20:08:21.023Z,18.40
2019-05-26T20:10:46.484Z,18.40
2019-05-26T20:13:11.587Z,18.30
2019-05-26T20:15:36.833Z,18.20
2019-05-26T20:18:01.974Z,18.10
2019-05-26T20:20:27.245Z,18.00
2019-05-26T20:22:52.418Z,18.00
2019-05-26T20:25:17.770Z,18.00
2019-05-26T20:27:43.173Z,17.90
2019-05-26T20:30:08.401Z,17.80
2019-05-26T20:32:33.514Z,17.80
2019-05-26T20:34:59.748Z,17.80
2019-05-26T20:37:26.842Z,17.80
2019-05-26T20:39:51.966Z,17.70
2019-05-26T20:42:17.059Z,17.70
2019-05-26T20:44:42.508Z,17.60
2019-05-26T20:47:07.598Z,17.60
2019-05-26T20:49:44.843Z,17.50
2019-05-26T20:51:59.462Z,17.50
2019-05-26T20:54:24.755Z,17.50
2019-05-26T20:56:49.869Z,17.40
2019-05-26T20:59:14.957Z,17.40
2019-05-26T21:01:41.086Z,17.40
2019-05-26T21:04:06.178Z,17.40
2019-05-26T21:06:31.270Z,17.30
2019-05-26T21:08:56.386Z,17.30
2019-05-26T21:11:21.469Z,17.40
2019-05-26T21:13:46.650Z,17.30
2019-05-26T21:16:11.814Z,17.30
2019-05-26T21:18:36.958Z,17.30
2019-05-26T21:21:02.051Z,17.20
2019-05-26T21:23:27.125Z,17.20
2019-05-26T21:25:52.241Z,17.20
2019-05-26T21:28:17.697Z,17.20
2019-05-26T21:30:43.006Z,17.20
2019-05-26T21:33:08.352Z,17.20
2019-05-26T21:35:33.506Z,17.30
2019-05-26T21:37:58.609Z,17.30
2019-05-26T21:40:23.698Z,17.20
2019-05-26T21:42:48.820Z,17.30
2019-05-26T21:45:14.024Z,17.30
2019-05-26T21:47:39.165Z,17.40
2019-05-26T21:50:04.718Z,17.40
2019-05-26T21:52:29.830Z,17.40
2019-05-26T21:54:54.989Z,17.40
2019-05-26T21:57:20.126Z,17.40
2019-05-26T21:59:45.217Z,17.40
2019-05-26T22:02:10.326Z,17.40
2019-05-26T22:04:35.463Z,17.40
2019-05-26T22:07:01.518Z,17.40
2019-05-26T22:09:26.640Z,17.50
2019-05-26T22:11:51.725Z,17.40
2019-05-26T22:14:17.091Z,17.40
2019-05-26T22:16:42.278Z,17.40
2019-05-26T22:19:07.354Z,17.40
2019-05-26T22:21:32.462Z,17.40
2019-05-26T22:23:57.550Z,17.30
2019-05-26T22:26:22.630Z,17.40
2019-05-26T22:28:47.765Z,17.30
2019-05-26T22:31:12.864Z,17.30
2019-05-26T22:33:37.990Z,17.30
2019-05-26T22:36:03.094Z,17.30
2019-05-26T22:38:28.182Z,17.30
2019-05-26T22:40:53.278Z,17.30
2019-05-26T22:43:18.369Z,17.20
2019-05-26T22:45:43.485Z,17.20
2019-05-26T22:48:08.687Z,17.20
2019-05-26T22:50:33.798Z,17.20
2019-05-26T22:52:58.874Z,17.20
2019-05-26T22:55:23.969Z,17.20
2019-05-26T22:57:49.092Z,17.20
2019-05-26T23:00:16.062Z,17.20
2019-05-26T23:02:41.362Z,17.20
2019-05-26T23:05:06.718Z,17.20
2019-05-26T23:07:33.183Z,17.20
2019-05-26T23:09:58.302Z,17.20
2019-05-26T23:12:23.394Z,17.20
2019-05-26T23:14:48.507Z,17.20
2019-05-26T23:17:13.678Z,17.30
2019-05-26T23:19:38.938Z,17.30
2019-05-26T23:22:04.053Z,17.30
2019-05-26T23:24:29.153Z,17.30
2019-05-26T23:26:54.222Z,17.30
2019-05-26T23:29:19.337Z,17.30
2019-05-26T23:31:44.434Z,17.30
2019-05-26T23:34:09.522Z,17.30
2019-05-26T23:36:34.655Z,17.20
2019-05-26T23:38:59.746Z,17.30
2019-05-26T23:41:24.893Z,17.30
2019-05-26T23:43:49.969Z,17.30
2019-05-26T23:46:15.159Z,17.20
2019-05-26T23:48:40.209Z,17.30
2019-05-26T23:51:05.294Z,17.30
2019-05-26T23:53:30.433Z,17.30
2019-05-26T23:55:55.522Z,17.30
2019-05-26T23:58:20.651Z,17.30
